createdAt,value
2023-02-06T00:00:53.621Z,5.00
2023-02-06T00:03:20.768Z,6.93
2023-02-06T00:06:01.197Z,8.17
2023-02-06T00:08:28.652Z,8.10
2023-02-06T00:10:55.770Z,6.33
2023-02-06T00:13:23.069Z,6.97
2023-02-06T00:15:50.180Z,6.13
2023-02-06T00:18:17.205Z,5.20
2023-02-06T00:20:44.158Z,8.03
2023-02-06T00:23:11.159Z,5.80
2023-02-06T00:25:38.252Z,8.97
2023-02-06T00:28:05.659Z,9.63
2023-02-06T00:30:32.810Z,7.47
2023-02-06T00:32:59.852Z,11.27
2023-02-06T00:35:28.238Z,5.00
2023-02-06T00:37:55.241Z,6.60
2023-02-06T00:40:22.236Z,6.17
2023-02-06T00:42:49.195Z,9.93
2023-02-06T00:45:16.178Z,6.77
2023-02-06T00:47:43.146Z,5.60
2023-02-06T00:50:10.253Z,6.87
2023-02-06T00:52:37.309Z,7.60
2023-02-06T00:55:05.557Z,5.17
2023-02-06T00:57:32.489Z,10.93
2023-02-06T00:59:59.508Z,5.00
2023-02-06T01:02:26.917Z,7.33
2023-02-06T01:04:53.912Z,5.80
2023-02-06T01:07:20.837Z,7.77
2023-02-06T01:09:47.817Z,10.00
2023-02-06T01:12:14.751Z,10.63
2023-02-06T01:14:41.726Z,6.30
2023-02-06T01:17:11.766Z,7.20
2023-02-06T01:19:39.091Z,6.87
2023-02-06T01:22:06.863Z,6.70
2023-02-06T01:24:35.826Z,9.00
2023-02-06T01:27:03.672Z,6.60
2023-02-06T01:29:30.706Z,8.13
2023-02-06T01:31:57.591Z,11.30
2023-02-06T01:34:24.522Z,8.20
2023-02-06T01:36:51.501Z,7.93
2023-02-06T01:39:18.508Z,10.97
2023-02-06T01:41:46.531Z,8.73
2023-02-06T01:44:22.564Z,8.03
2023-02-06T01:46:54.997Z,9.77
2023-02-06T01:49:35.894Z,10.27
2023-02-06T01:52:17.310Z,8.93
2023-02-06T01:54:49.284Z,7.30
2023-02-06T01:57:17.226Z,9.23
2023-02-06T01:59:49.361Z,12.97
2023-02-06T02:02:16.653Z,11.50
2023-02-06T02:04:45.025Z,9.47
2023-02-06T02:07:22.866Z,9.93
2023-02-06T02:09:49.830Z,10.17
2023-02-06T02:12:17.212Z,11.93
2023-02-06T02:14:45.867Z,11.73
2023-02-06T02:17:28.441Z,11.60
2023-02-06T02:20:32.863Z,10.07
2023-02-06T02:23:15.114Z,12.27
2023-02-06T02:25:42.012Z,14.40
2023-02-06T02:28:27.633Z,9.90
2023-02-06T02:31:09.712Z,15.13
2023-02-06T02:34:13.605Z,11.53
2023-02-06T02:36:51.676Z,15.60
2023-02-06T02:39:35.107Z,13.53
2023-02-06T02:42:13.350Z,12.37
2023-02-06T02:45:11.495Z,12.43
2023-02-06T02:48:06.521Z,15.00
2023-02-06T02:50:34.329Z,12.27
2023-02-06T02:53:03.272Z,14.47
2023-02-06T02:55:30.263Z,18.53
2023-02-06T02:58:11.623Z,13.37
2023-02-06T03:00:44.825Z,12.33
2023-02-06T03:03:14.511Z,13.80
2023-02-06T03:06:06.770Z,14.83
2023-02-06T03:08:51.867Z,15.83
2023-02-06T03:11:23.898Z,15.27
2023-02-06T03:14:34.406Z,16.30
2023-02-06T03:17:07.146Z,12.43
2023-02-06T03:19:39.730Z,13.37
2023-02-06T03:22:06.796Z,15.90
2023-02-06T03:24:37.833Z,14.57
2023-02-06T03:27:10.693Z,18.80
2023-02-06T03:29:41.619Z,18.47
2023-02-06T03:32:15.292Z,17.83
2023-02-06T03:34:53.505Z,15.60
2023-02-06T03:37:21.815Z,13.47
2023-02-06T03:39:49.128Z,12.60
2023-02-06T03:42:17.300Z,15.03
2023-02-06T03:44:58.120Z,14.70
2023-02-06T03:47:26.632Z,12.57
2023-02-06T03:49:57.455Z,14.37
2023-02-06T03:52:28.387Z,16.60
2023-02-06T03:55:02.489Z,16.50
2023-02-06T03:57:32.926Z,13.60
2023-02-06T03:59:59.907Z,16.40
2023-02-06T04:02:27.475Z,11.90
2023-02-06T04:04:54.511Z,14.27
2023-02-06T04:07:30.145Z,12.90
2023-02-06T04:09:57.118Z,15.93
2023-02-06T04:12:24.999Z,17.53
2023-02-06T04:14:52.310Z,19.67
2023-02-06T04:17:38.463Z,14.67
2023-02-06T04:20:07.841Z,14.23
2023-02-06T04:22:35.045Z,11.57
2023-02-06T04:25:02.118Z,12.20
2023-02-06T04:27:29.108Z,13.17
2023-02-06T04:29:56.039Z,14.00
2023-02-06T04:32:23.008Z,16.10
2023-02-06T04:34:49.981Z,16.67
2023-02-06T04:37:16.932Z,15.90
2023-02-06T04:39:44.003Z,16.97
2023-02-06T04:42:10.943Z,16.27
2023-02-06T04:44:38.552Z,14.60
2023-02-06T04:47:06.252Z,16.83
2023-02-06T04:49:33.801Z,17.70
2023-02-06T04:52:00.767Z,18.40
2023-02-06T04:54:27.766Z,17.10
2023-02-06T04:56:54.761Z,17.03
2023-02-06T04:59:21.706Z,22.83
2023-02-06T05:01:48.659Z,16.37
2023-02-06T05:04:15.673Z,17.13
2023-02-06T05:06:42.613Z,21.73
2023-02-06T05:09:10.000Z,18.63
2023-02-06T05:11:36.951Z,20.20
2023-02-06T05:14:03.892Z,24.10
2023-02-06T05:16:30.877Z,17.33
2023-02-06T05:18:58.249Z,15.97
2023-02-06T05:21:26.083Z,18.77
2023-02-06T05:23:53.193Z,18.10
2023-02-06T05:26:20.443Z,15.83
2023-02-06T05:28:47.697Z,19.63
2023-02-06T05:31:19.715Z,14.80
2023-02-06T05:33:50.422Z,14.70
2023-02-06T05:36:19.900Z,13.83
2023-02-06T05:38:47.905Z,16.80
2023-02-06T05:41:15.800Z,12.43
2023-02-06T05:43:43.009Z,14.87
2023-02-06T05:46:11.324Z,10.63
2023-02-06T05:48:38.583Z,14.20
2023-02-06T05:51:05.710Z,14.53
2023-02-06T05:53:32.854Z,11.67
2023-02-06T05:55:59.808Z,15.47
2023-02-06T05:58:26.910Z,11.87
2023-02-06T06:00:53.978Z,12.87
2023-02-06T06:03:20.986Z,11.20
2023-02-06T06:05:48.412Z,12.00
2023-02-06T06:08:15.872Z,13.00
2023-02-06T06:10:42.826Z,11.43
2023-02-06T06:13:09.888Z,11.43
2023-02-06T06:15:37.511Z,12.20
2023-02-06T06:18:04.842Z,16.30
2023-02-06T06:20:31.801Z,15.37
2023-02-06T06:22:58.830Z,14.60
2023-02-06T06:25:25.824Z,14.40
2023-02-06T06:27:52.936Z,12.40
2023-02-06T06:30:19.983Z,14.33
2023-02-06T06:32:47.030Z,14.00
2023-02-06T06:35:13.928Z,14.07
2023-02-06T06:37:40.879Z,13.00
2023-02-06T06:40:08.338Z,14.93
2023-02-06T06:42:35.310Z,11.80
2023-02-06T06:45:02.262Z,12.53
2023-02-06T06:47:29.246Z,11.80
2023-02-06T06:49:56.228Z,12.37
2023-02-06T06:52:25.550Z,11.53
2023-02-06T06:54:53.538Z,10.10
2023-02-06T06:57:22.112Z,14.17
2023-02-06T06:59:49.595Z,14.33
2023-02-06T07:02:17.527Z,8.40
2023-02-06T07:04:44.517Z,13.07
2023-02-06T07:07:11.571Z,13.20
2023-02-06T07:09:38.534Z,16.37
2023-02-06T07:12:05.812Z,13.50
2023-02-06T07:14:32.882Z,12.03
2023-02-06T07:17:01.680Z,13.37
2023-02-06T07:19:28.778Z,10.20
2023-02-06T07:21:55.755Z,11.23
2023-02-06T07:24:22.802Z,14.40
2023-02-06T07:26:49.788Z,11.80
2023-02-06T07:29:16.804Z,12.23
2023-02-06T07:31:43.712Z,12.27
2023-02-06T07:34:10.727Z,10.20
2023-02-06T07:36:38.055Z,9.50
2023-02-06T07:39:05.367Z,11.10
2023-02-06T07:41:32.366Z,8.60
2023-02-06T07:43:59.397Z,10.90
2023-02-06T07:46:26.500Z,8.00
2023-02-06T07:48:53.491Z,11.97
2023-02-06T07:51:20.673Z,10.87
2023-02-06T07:53:48.480Z,12.50
2023-02-06T07:56:20.343Z,7.30
2023-02-06T07:58:51.830Z,7.33
2023-02-06T08:01:19.380Z,8.90
2023-02-06T08:03:46.352Z,11.43
2023-02-06T08:06:15.878Z,9.57
2023-02-06T08:08:43.944Z,9.30
2023-02-06T08:11:15.034Z,8.93
2023-02-06T08:13:43.289Z,9.60
2023-02-06T08:16:19.352Z,8.63
2023-02-06T08:18:47.031Z,9.50
2023-02-06T08:21:19.082Z,9.13
2023-02-06T08:23:46.205Z,12.03
2023-02-06T08:26:18.542Z,6.90
2023-02-06T08:28:47.318Z,13.97
2023-02-06T08:31:23.678Z,12.13
2023-02-06T08:33:51.158Z,6.87
2023-02-06T08:36:19.754Z,8.93
2023-02-06T08:38:47.834Z,8.77
2023-02-06T08:41:19.553Z,11.90
2023-02-06T08:43:51.186Z,7.30
2023-02-06T08:46:19.535Z,7.80
2023-02-06T08:48:46.674Z,5.17
2023-02-06T08:51:15.301Z,11.33
2023-02-06T08:53:42.236Z,7.17
2023-02-06T08:56:11.172Z,7.40
2023-02-06T08:58:39.019Z,6.27
2023-02-06T09:01:13.691Z,6.00
2023-02-06T09:03:44.281Z,5.57
2023-02-06T09:06:12.301Z,7.23
2023-02-06T09:08:40.511Z,5.70
2023-02-06T09:11:18.072Z,8.23
2023-02-06T09:13:50.039Z,3.57
2023-02-06T09:16:20.753Z,3.40
2023-02-06T09:18:49.073Z,4.50
2023-02-06T09:21:25.598Z,6.83
2023-02-06T09:23:56.718Z,6.43
2023-02-06T09:26:33.381Z,5.37
2023-02-06T09:29:05.500Z,5.40
2023-02-06T09:31:32.673Z,7.50
2023-02-06T09:34:02.579Z,6.67
2023-02-06T09:36:30.361Z,3.77
2023-02-06T09:38:58.379Z,4.17
2023-02-06T09:41:37.511Z,6.63
2023-02-06T09:44:29.761Z,5.67
2023-02-06T09:46:59.464Z,8.93
2023-02-06T09:49:40.470Z,3.60
2023-02-06T09:52:29.127Z,5.00
2023-02-06T09:55:26.611Z,4.67
2023-02-06T09:58:11.544Z,7.03
2023-02-06T10:00:38.683Z,10.80
2023-02-06T10:03:11.557Z,9.37
2023-02-06T10:05:54.793Z,8.67
2023-02-06T10:08:28.993Z,5.47
2023-02-06T10:10:58.606Z,6.67
2023-02-06T10:13:25.681Z,10.33
2023-02-06T10:15:59.783Z,7.57
2023-02-06T10:18:32.948Z,3.17
2023-02-06T10:21:06.787Z,8.27
2023-02-06T10:23:47.377Z,5.00
2023-02-06T10:26:18.125Z,3.73
2023-02-06T10:28:49.762Z,3.97
2023-02-06T10:31:21.694Z,2.87
2023-02-06T10:34:15.334Z,5.40
2023-02-06T10:36:57.231Z,5.23
2023-02-06T10:39:44.984Z,5.60
2023-02-06T10:42:33.738Z,8.17
2023-02-06T10:45:18.923Z,5.50
2023-02-06T10:47:59.044Z,4.90
2023-02-06T10:50:34.911Z,8.53
2023-02-06T10:53:12.179Z,6.43
2023-02-06T10:55:52.141Z,7.30
2023-02-06T10:58:53.126Z,4.13
2023-02-06T11:01:26.503Z,5.17
2023-02-06T11:04:10.528Z,7.50
2023-02-06T11:06:40.190Z,6.77
2023-02-06T11:09:07.242Z,2.93
2023-02-06T11:11:40.970Z,16.50
2023-02-06T11:14:24.867Z,2.97
2023-02-06T11:16:52.804Z,3.33
2023-02-06T11:19:27.306Z,4.97
2023-02-06T11:21:54.426Z,3.60
2023-02-06T11:24:24.354Z,4.67
2023-02-06T11:27:00.614Z,3.87
2023-02-06T11:29:51.642Z,3.47
2023-02-06T11:32:52.867Z,7.03
2023-02-06T11:35:39.764Z,3.37
2023-02-06T11:38:29.475Z,6.57
2023-02-06T11:40:56.380Z,3.23
2023-02-06T11:43:44.503Z,6.43
2023-02-06T11:46:11.468Z,4.33
2023-02-06T11:48:41.307Z,9.50
2023-02-06T11:51:09.556Z,7.33
2023-02-06T11:53:37.829Z,4.83
2023-02-06T11:56:15.895Z,7.13
2023-02-06T11:58:44.123Z,5.30
2023-02-06T12:01:19.911Z,7.90
2023-02-06T12:03:49.987Z,8.97
2023-02-06T12:06:33.970Z,7.93
2023-02-06T12:09:03.950Z,6.10
2023-02-06T12:11:47.005Z,4.97
2023-02-06T12:14:19.050Z,5.90
2023-02-06T12:16:47.048Z,4.57
2023-02-06T12:19:21.376Z,4.87
2023-02-06T12:21:56.136Z,6.67
2023-02-06T12:24:40.726Z,6.13
2023-02-06T12:27:22.903Z,6.43
2023-02-06T12:30:19.229Z,6.90
2023-02-06T12:32:50.974Z,6.03
2023-02-06T12:35:59.439Z,5.70
2023-02-06T12:38:50.735Z,6.87
2023-02-06T12:41:47.961Z,5.53
2023-02-06T12:44:44.377Z,4.43
2023-02-06T12:47:14.376Z,3.10
2023-02-06T12:50:19.024Z,5.13
2023-02-06T12:52:51.872Z,3.00
2023-02-06T12:55:27.724Z,6.93
2023-02-06T12:57:55.677Z,2.97
2023-02-06T13:00:38.653Z,3.10
2023-02-06T13:03:33.173Z,4.43
2023-02-06T13:06:23.296Z,4.33
2023-02-06T13:08:56.111Z,2.83
2023-02-06T13:11:39.192Z,3.53
2023-02-06T13:14:21.672Z,2.53
2023-02-06T13:17:12.296Z,3.53
2023-02-06T13:19:39.346Z,4.07
2023-02-06T13:22:16.905Z,4.93
2023-02-06T13:24:45.973Z,4.03
2023-02-06T13:27:39.629Z,5.93
2023-02-06T13:30:18.071Z,6.03
2023-02-06T13:32:50.073Z,4.43
2023-02-06T13:35:17.109Z,2.60
2023-02-06T13:37:48.209Z,4.27
2023-02-06T13:40:24.472Z,3.97
2023-02-06T13:43:02.718Z,3.83
2023-02-06T13:45:57.200Z,3.83
2023-02-06T13:48:29.875Z,5.30
2023-02-06T13:51:18.598Z,3.63
2023-02-06T13:54:05.450Z,6.87
2023-02-06T13:56:45.065Z,4.67
2023-02-06T13:59:39.769Z,7.40
2023-02-06T14:02:15.652Z,4.83
2023-02-06T14:04:45.289Z,2.40
2023-02-06T14:07:27.440Z,6.07
2023-02-06T14:10:23.747Z,13.00
2023-02-06T14:13:32.927Z,6.40
2023-02-06T14:16:23.867Z,6.17
2023-02-06T14:19:02.371Z,3.97
2023-02-06T14:21:40.968Z,5.10
2023-02-06T14:24:34.361Z,8.93
2023-02-06T14:27:29.035Z,2.50
2023-02-06T14:30:27.510Z,4.03
2023-02-06T14:33:25.103Z,6.37
2023-02-06T14:36:10.765Z,2.57
2023-02-06T14:38:37.741Z,5.60
2023-02-06T14:41:04.890Z,4.23
2023-02-06T14:43:39.360Z,2.53
2023-02-06T14:46:12.242Z,2.80
2023-02-06T14:48:44.505Z,3.40
2023-02-06T14:51:34.625Z,2.47
2023-02-06T14:54:04.477Z,3.13
2023-02-06T14:56:37.249Z,4.60
2023-02-06T14:59:13.021Z,6.87
2023-02-06T15:01:41.837Z,7.10
2023-02-06T15:04:21.981Z,2.53
2023-02-06T15:07:04.505Z,2.60
2023-02-06T15:09:37.833Z,4.23
2023-02-06T15:12:19.026Z,4.37
2023-02-06T15:15:16.349Z,3.67
2023-02-06T15:17:43.859Z,4.83
2023-02-06T15:20:37.035Z,2.20
2023-02-06T15:23:17.628Z,5.07
2023-02-06T15:25:59.238Z,4.50
2023-02-06T15:28:29.945Z,1.93
2023-02-06T15:30:59.208Z,2.70
2023-02-06T15:33:29.338Z,3.13
2023-02-06T15:35:58.192Z,4.17
2023-02-06T15:38:27.440Z,2.43
2023-02-06T15:41:05.477Z,3.20
2023-02-06T15:43:34.446Z,5.20
2023-02-06T15:46:04.421Z,2.60
2023-02-06T15:48:50.283Z,2.93
2023-02-06T15:51:30.081Z,3.00
2023-02-06T15:54:19.574Z,3.37
2023-02-06T15:57:28.708Z,2.90
2023-02-06T15:59:59.068Z,5.30
2023-02-06T16:02:36.997Z,3.53
2023-02-06T16:05:05.986Z,3.53
2023-02-06T16:07:37.839Z,3.67
2023-02-06T16:10:06.029Z,3.67
2023-02-06T16:12:35.581Z,2.90
2023-02-06T16:15:21.760Z,6.20
2023-02-06T16:17:48.805Z,4.37
2023-02-06T16:20:42.907Z,7.30
2023-02-06T16:23:28.966Z,4.03
2023-02-06T16:26:12.932Z,4.17
2023-02-06T16:29:03.623Z,5.97
2023-02-06T16:31:33.947Z,5.40
2023-02-06T16:34:04.924Z,8.17
2023-02-06T16:36:33.624Z,6.60
2023-02-06T16:39:04.418Z,4.93
2023-02-06T16:41:40.307Z,5.73
2023-02-06T16:44:12.788Z,3.97
2023-02-06T16:46:39.773Z,5.60
2023-02-06T16:49:12.838Z,4.17
2023-02-06T16:51:42.435Z,5.87
2023-02-06T16:54:19.878Z,5.70
2023-02-06T16:56:47.293Z,9.97
2023-02-06T16:59:14.313Z,7.73
2023-02-06T17:01:41.568Z,6.77
2023-02-06T17:04:08.552Z,5.70
2023-02-06T17:06:36.132Z,8.00
2023-02-06T17:09:09.126Z,9.00
2023-02-06T17:11:37.547Z,4.63
2023-02-06T17:14:05.949Z,7.33
2023-02-06T17:16:33.753Z,5.57
2023-02-06T17:19:00.880Z,5.50
2023-02-06T17:21:32.735Z,6.77
2023-02-06T17:24:00.080Z,5.83
2023-02-06T17:26:27.128Z,5.03
2023-02-06T17:28:54.176Z,5.03
2023-02-06T17:31:21.873Z,4.90
2023-02-06T17:33:48.981Z,11.30
2023-02-06T17:36:29.184Z,5.30
2023-02-06T17:39:00.370Z,6.20
2023-02-06T17:41:28.000Z,3.43
2023-02-06T17:43:54.976Z,7.63
2023-02-06T17:46:22.275Z,6.30
2023-02-06T17:48:49.248Z,4.50
2023-02-06T17:51:16.211Z,5.37
2023-02-06T17:53:43.152Z,4.30
2023-02-06T17:56:13.013Z,5.77
2023-02-06T17:58:41.056Z,6.50
2023-02-06T18:01:20.534Z,7.53
2023-02-06T18:03:48.123Z,6.63
2023-02-06T18:06:15.440Z,8.57
2023-02-06T18:08:43.436Z,11.57
2023-02-06T18:11:21.477Z,11.73
2023-02-06T18:13:49.544Z,12.33
2023-02-06T18:16:21.984Z,11.00
2023-02-06T18:18:49.615Z,9.93
2023-02-06T18:21:19.302Z,7.30
2023-02-06T18:23:47.408Z,8.63
2023-02-06T18:26:14.460Z,8.20
2023-02-06T18:28:41.426Z,17.03
2023-02-06T18:31:26.461Z,8.63
2023-02-06T18:33:54.461Z,7.27
2023-02-06T18:36:22.839Z,8.43
2023-02-06T18:38:50.053Z,8.03
2023-02-06T18:41:36.008Z,7.63
2023-02-06T18:44:05.590Z,10.27
2023-02-06T18:46:33.374Z,8.97
2023-02-06T18:49:00.585Z,8.50
2023-02-06T18:51:29.139Z,7.43
2023-02-06T18:53:57.617Z,5.77
2023-02-06T18:56:24.722Z,6.97
2023-02-06T18:58:51.802Z,6.40
2023-02-06T19:01:21.355Z,10.37
2023-02-06T19:03:49.312Z,7.77
2023-02-06T19:06:20.156Z,6.20
2023-02-06T19:08:47.134Z,5.30
2023-02-06T19:11:14.297Z,8.57
2023-02-06T19:13:41.355Z,6.20
2023-02-06T19:16:15.561Z,8.80
2023-02-06T19:18:44.668Z,7.13
2023-02-06T19:21:17.200Z,6.53
2023-02-06T19:23:45.716Z,11.93
2023-02-06T19:26:16.052Z,6.73
2023-02-06T19:28:44.087Z,9.57
2023-02-06T19:31:12.408Z,10.40
2023-02-06T19:33:41.699Z,10.20
2023-02-06T19:36:09.872Z,5.93
2023-02-06T19:38:37.255Z,9.37
2023-02-06T19:41:09.610Z,8.40
2023-02-06T19:43:37.486Z,6.17
2023-02-06T19:46:09.454Z,8.20
2023-02-06T19:48:36.422Z,7.07
2023-02-06T19:51:09.095Z,10.03
2023-02-06T19:53:36.414Z,7.57
2023-02-06T19:56:06.660Z,12.73
2023-02-06T19:58:33.671Z,10.23
2023-02-06T20:01:11.848Z,5.17
2023-02-06T20:03:39.708Z,13.67
2023-02-06T20:06:10.457Z,8.03
2023-02-06T20:08:39.274Z,10.03
2023-02-06T20:11:08.563Z,21.60
2023-02-06T20:13:36.641Z,8.30
2023-02-06T20:16:04.989Z,11.00
2023-02-06T20:18:35.878Z,10.97
2023-02-06T20:21:03.413Z,11.83
2023-02-06T20:23:31.387Z,9.17
2023-02-06T20:26:02.545Z,9.17
2023-02-06T20:28:29.998Z,7.13
2023-02-06T20:30:57.157Z,8.67
2023-02-06T20:33:24.118Z,8.47
2023-02-06T20:35:51.065Z,6.33
2023-02-06T20:38:18.178Z,9.37
2023-02-06T20:40:50.912Z,10.33
2023-02-06T20:43:17.890Z,10.13
2023-02-06T20:45:44.836Z,10.23
2023-02-06T20:48:11.774Z,14.80
2023-02-06T20:50:38.931Z,14.07
2023-02-06T20:53:06.180Z,13.10
2023-02-06T20:55:33.123Z,10.80
2023-02-06T20:58:00.265Z,11.00
2023-02-06T21:00:27.209Z,9.27
2023-02-06T21:02:54.128Z,9.60
2023-02-06T21:05:21.171Z,9.80
2023-02-06T21:07:48.105Z,12.20
2023-02-06T21:10:15.986Z,8.73
2023-02-06T21:12:43.313Z,10.57
2023-02-06T21:15:10.403Z,11.53
2023-02-06T21:17:37.530Z,10.47
2023-02-06T21:20:06.368Z,11.90
2023-02-06T21:22:33.832Z,9.60
2023-02-06T21:25:00.887Z,9.43
2023-02-06T21:27:28.923Z,10.77
2023-02-06T21:29:55.864Z,11.60
2023-02-06T21:32:22.910Z,11.40
2023-02-06T21:34:49.957Z,14.20
2023-02-06T21:37:16.929Z,11.47
2023-02-06T21:39:44.527Z,13.63
2023-02-06T21:42:11.657Z,13.80
2023-02-06T21:44:38.702Z,16.13
2023-02-06T21:47:05.611Z,14.33
2023-02-06T21:49:32.679Z,16.37
2023-02-06T21:51:59.916Z,12.93
2023-02-06T21:54:27.976Z,12.30
2023-02-06T21:56:54.913Z,12.07
2023-02-06T21:59:21.866Z,10.47
2023-02-06T22:01:48.836Z,17.60
2023-02-06T22:04:15.789Z,13.17
2023-02-06T22:06:43.644Z,12.10
2023-02-06T22:09:15.450Z,12.53
2023-02-06T22:11:43.271Z,10.00
2023-02-06T22:14:12.832Z,10.70
2023-02-06T22:16:39.910Z,13.87
2023-02-06T22:19:07.416Z,10.40
2023-02-06T22:21:35.165Z,11.77
2023-02-06T22:24:07.444Z,10.60
2023-02-06T22:26:38.475Z,9.57
2023-02-06T22:29:12.144Z,10.80
2023-02-06T22:31:40.791Z,9.13
2023-02-06T22:34:11.843Z,8.70
2023-02-06T22:36:39.594Z,10.83
2023-02-06T22:39:08.682Z,11.67
2023-02-06T22:41:39.421Z,13.70
2023-02-06T22:44:06.428Z,12.30
2023-02-06T22:46:36.446Z,16.43
2023-02-06T22:49:05.693Z,14.03
2023-02-06T22:51:33.222Z,18.03
2023-02-06T22:54:00.678Z,16.47
2023-02-06T22:56:36.213Z,19.03
2023-02-06T22:59:13.999Z,17.30
2023-02-06T23:01:42.754Z,19.43
2023-02-06T23:04:21.816Z,16.10
2023-02-06T23:06:49.629Z,18.87
2023-02-06T23:09:43.099Z,19.83
2023-02-06T23:12:11.663Z,21.67
2023-02-06T23:14:38.688Z,21.43
2023-02-06T23:17:05.711Z,20.43
2023-02-06T23:19:32.757Z,21.83
2023-02-06T23:21:59.735Z,19.40
2023-02-06T23:24:26.898Z,16.20
2023-02-06T23:26:54.547Z,16.97
2023-02-06T23:29:22.767Z,17.97
2023-02-06T23:31:50.745Z,14.77
2023-02-06T23:34:18.377Z,19.23
2023-02-06T23:36:46.372Z,12.63
2023-02-06T23:39:13.366Z,23.00
2023-02-06T23:41:40.573Z,15.67
2023-02-06T23:44:08.569Z,18.43
2023-02-06T23:46:37.580Z,15.10
2023-02-06T23:49:06.458Z,20.87
2023-02-06T23:51:35.144Z,16.57
2023-02-06T23:54:02.599Z,16.90
2023-02-06T23:56:31.399Z,15.70
2023-02-06T23:58:59.686Z,14.47
